sensor_id;sensor_type;location;lat;lon;timestamp;P1;durP1;ratioP1;P2;durP2;ratioP2
20894;SDS011;10607;42.066;24.742;2023-09-08T00:01:39;9.02;;;2.80;;
20894;SDS011;10607;42.066;24.742;2023-09-08T00:04:04;8.40;;;3.15;;
20894;SDS011;10607;42.066;24.742;2023-09-08T00:06:29;6.25;;;3.40;;
20894;SDS011;10607;42.066;24.742;2023-09-08T00:08:55;5.95;;;3.13;;
20894;SDS011;10607;42.066;24.742;2023-09-08T00:11:20;6.88;;;2.95;;
20894;SDS011;10607;42.066;24.742;2023-09-08T00:13:45;6.57;;;3.30;;
20894;SDS011;10607;42.066;24.742;2023-09-08T00:16:11;5.18;;;2.83;;
20894;SDS011;10607;42.066;24.742;2023-09-08T00:18:36;6.88;;;2.80;;
20894;SDS011;10607;42.066;24.742;2023-09-08T00:21:01;4.47;;;3.03;;
20894;SDS011;10607;42.066;24.742;2023-09-08T00:23:26;6.38;;;2.85;;
20894;SDS011;10607;42.066;24.742;2023-09-08T00:25:53;6.85;;;2.90;;
20894;SDS011;10607;42.066;24.742;2023-09-08T00:28:18;7.78;;;2.83;;
20894;SDS011;10607;42.066;24.742;2023-09-08T00:30:43;10.70;;;3.10;;
20894;SDS011;10607;42.066;24.742;2023-09-08T00:33:09;4.03;;;2.67;;
20894;SDS011;10607;42.066;24.742;2023-09-08T00:35:36;4.47;;;3.00;;
20894;SDS011;10607;42.066;24.742;2023-09-08T00:38:01;6.40;;;3.33;;
20894;SDS011;10607;42.066;24.742;2023-09-08T00:40:27;6.85;;;3.30;;
20894;SDS011;10607;42.066;24.742;2023-09-08T00:42:53;10.07;;;3.75;;
20894;SDS011;10607;42.066;24.742;2023-09-08T00:45:18;5.88;;;3.40;;
20894;SDS011;10607;42.066;24.742;2023-09-08T00:47:43;6.70;;;2.70;;
20894;SDS011;10607;42.066;24.742;2023-09-08T00:50:09;5.05;;;2.75;;
20894;SDS011;10607;42.066;24.742;2023-09-08T00:52:34;5.82;;;3.30;;
20894;SDS011;10607;42.066;24.742;2023-09-08T00:54:59;8.27;;;3.13;;
20894;SDS011;10607;42.066;24.742;2023-09-08T00:57:25;7.03;;;3.42;;
20894;SDS011;10607;42.066;24.742;2023-09-08T00:59:50;6.50;;;3.30;;
20894;SDS011;10607;42.066;24.742;2023-09-08T01:02:15;6.68;;;2.90;;
20894;SDS011;10607;42.066;24.742;2023-09-08T01:04:41;5.55;;;3.17;;
20894;SDS011;10607;42.066;24.742;2023-09-08T01:07:06;6.82;;;2.80;;
20894;SDS011;10607;42.066;24.742;2023-09-08T01:09:32;6.65;;;2.75;;
20894;SDS011;10607;42.066;24.742;2023-09-08T01:11:58;7.38;;;3.00;;
20894;SDS011;10607;42.066;24.742;2023-09-08T01:14:27;6.97;;;2.58;;
20894;SDS011;10607;42.066;24.742;2023-09-08T01:16:52;4.45;;;2.85;;
20894;SDS011;10607;42.066;24.742;2023-09-08T01:19:17;5.80;;;2.67;;
20894;SDS011;10607;42.066;24.742;2023-09-08T01:24:31;6.53;;;3.03;;
20894;SDS011;10607;42.066;24.742;2023-09-08T01:27:02;8.20;;;2.78;;
20894;SDS011;10607;42.066;24.742;2023-09-08T01:29:28;6.03;;;2.50;;
20894;SDS011;10607;42.066;24.742;2023-09-08T01:31:54;5.90;;;3.10;;
20894;SDS011;10607;42.066;24.742;2023-09-08T01:34:20;6.35;;;2.58;;
20894;SDS011;10607;42.066;24.742;2023-09-08T01:36:45;4.90;;;2.75;;
20894;SDS011;10607;42.066;24.742;2023-09-08T01:39:11;4.50;;;2.85;;
20894;SDS011;10607;42.066;24.742;2023-09-08T01:41:36;9.23;;;3.10;;
20894;SDS011;10607;42.066;24.742;2023-09-08T01:44:01;5.40;;;2.95;;
20894;SDS011;10607;42.066;24.742;2023-09-08T01:46:32;5.25;;;3.22;;
20894;SDS011;10607;42.066;24.742;2023-09-08T01:48:58;6.45;;;3.20;;
20894;SDS011;10607;42.066;24.742;2023-09-08T01:51:23;7.15;;;3.45;;
20894;SDS011;10607;42.066;24.742;2023-09-08T01:53:48;9.02;;;3.47;;
20894;SDS011;10607;42.066;24.742;2023-09-08T01:56:13;5.50;;;3.42;;
20894;SDS011;10607;42.066;24.742;2023-09-08T01:58:39;10.02;;;3.58;;
20894;SDS011;10607;42.066;24.742;2023-09-08T02:01:04;9.35;;;3.42;;
20894;SDS011;10607;42.066;24.742;2023-09-08T02:03:31;8.93;;;3.50;;
20894;SDS011;10607;42.066;24.742;2023-09-08T02:05:56;10.65;;;4.10;;
20894;SDS011;10607;42.066;24.742;2023-09-08T02:08:22;11.65;;;4.00;;
20894;SDS011;10607;42.066;24.742;2023-09-08T02:10:47;12.02;;;4.10;;
20894;SDS011;10607;42.066;24.742;2023-09-08T02:13:12;13.43;;;4.35;;
20894;SDS011;10607;42.066;24.742;2023-09-08T02:15:37;6.32;;;3.65;;
20894;SDS011;10607;42.066;24.742;2023-09-08T02:18:03;6.90;;;4.55;;
20894;SDS011;10607;42.066;24.742;2023-09-08T02:20:28;8.43;;;4.82;;
20894;SDS011;10607;42.066;24.742;2023-09-08T02:22:54;7.97;;;4.82;;
20894;SDS011;10607;42.066;24.742;2023-09-08T02:25:19;9.02;;;5.10;;
20894;SDS011;10607;42.066;24.742;2023-09-08T02:27:44;7.65;;;4.93;;
20894;SDS011;10607;42.066;24.742;2023-09-08T02:30:10;11.57;;;5.32;;
20894;SDS011;10607;42.066;24.742;2023-09-08T02:32:35;9.00;;;4.95;;
20894;SDS011;10607;42.066;24.742;2023-09-08T02:35:00;7.72;;;5.35;;
20894;SDS011;10607;42.066;24.742;2023-09-08T02:37:25;10.45;;;5.15;;
20894;SDS011;10607;42.066;24.742;2023-09-08T02:39:51;13.60;;;5.20;;
20894;SDS011;10607;42.066;24.742;2023-09-08T02:42:16;14.35;;;5.50;;
20894;SDS011;10607;42.066;24.742;2023-09-08T02:44:41;7.10;;;5.30;;
20894;SDS011;10607;42.066;24.742;2023-09-08T02:47:08;8.30;;;4.68;;
20894;SDS011;10607;42.066;24.742;2023-09-08T02:49:33;12.32;;;5.60;;
20894;SDS011;10607;42.066;24.742;2023-09-08T02:51:58;15.93;;;5.35;;
20894;SDS011;10607;42.066;24.742;2023-09-08T02:54:23;10.90;;;5.13;;
20894;SDS011;10607;42.066;24.742;2023-09-08T02:56:49;9.18;;;5.07;;
20894;SDS011;10607;42.066;24.742;2023-09-08T02:59:14;11.20;;;5.50;;
20894;SDS011;10607;42.066;24.742;2023-09-08T03:01:39;14.27;;;5.13;;
20894;SDS011;10607;42.066;24.742;2023-09-08T03:04:05;12.70;;;4.93;;
20894;SDS011;10607;42.066;24.742;2023-09-08T03:06:30;9.80;;;4.60;;
20894;SDS011;10607;42.066;24.742;2023-09-08T03:08:55;12.15;;;5.10;;
20894;SDS011;10607;42.066;24.742;2023-09-08T03:11:20;9.20;;;4.68;;
20894;SDS011;10607;42.066;24.742;2023-09-08T03:13:46;10.40;;;4.70;;
20894;SDS011;10607;42.066;24.742;2023-09-08T03:16:11;9.30;;;4.70;;
20894;SDS011;10607;42.066;24.742;2023-09-08T03:18:36;8.65;;;4.18;;
20894;SDS011;10607;42.066;24.742;2023-09-08T03:21:05;19.58;;;5.38;;
20894;SDS011;10607;42.066;24.742;2023-09-08T03:23:39;6.63;;;4.07;;
20894;SDS011;10607;42.066;24.742;2023-09-08T03:26:05;7.90;;;4.03;;
20894;SDS011;10607;42.066;24.742;2023-09-08T03:28:31;9.32;;;3.92;;
20894;SDS011;10607;42.066;24.742;2023-09-08T03:30:57;8.23;;;4.50;;
20894;SDS011;10607;42.066;24.742;2023-09-08T03:33:22;18.30;;;4.63;;
20894;SDS011;10607;42.066;24.742;2023-09-08T03:35:47;14.50;;;4.70;;
20894;SDS011;10607;42.066;24.742;2023-09-08T03:38:12;12.35;;;4.35;;
20894;SDS011;10607;42.066;24.742;2023-09-08T03:40:38;9.00;;;4.30;;
20894;SDS011;10607;42.066;24.742;2023-09-08T03:43:04;9.45;;;4.20;;
20894;SDS011;10607;42.066;24.742;2023-09-08T03:45:29;8.90;;;4.32;;
20894;SDS011;10607;42.066;24.742;2023-09-08T03:47:54;9.55;;;4.47;;
20894;SDS011;10607;42.066;24.742;2023-09-08T03:50:19;14.25;;;4.30;;
20894;SDS011;10607;42.066;24.742;2023-09-08T03:52:45;9.45;;;4.30;;
20894;SDS011;10607;42.066;24.742;2023-09-08T03:55:10;8.48;;;4.03;;
20894;SDS011;10607;42.066;24.742;2023-09-08T03:57:36;11.32;;;4.05;;
20894;SDS011;10607;42.066;24.742;2023-09-08T04:00:01;11.32;;;4.88;;
20894;SDS011;10607;42.066;24.742;2023-09-08T04:02:26;11.75;;;5.20;;
20894;SDS011;10607;42.066;24.742;2023-09-08T04:04:52;8.23;;;4.05;;
20894;SDS011;10607;42.066;24.742;2023-09-08T04:07:17;12.05;;;5.00;;
20894;SDS011;10607;42.066;24.742;2023-09-08T04:09:42;9.77;;;4.38;;
20894;SDS011;10607;42.066;24.742;2023-09-08T04:12:07;9.68;;;4.63;;
20894;SDS011;10607;42.066;24.742;2023-09-08T04:14:34;7.05;;;4.70;;
20894;SDS011;10607;42.066;24.742;2023-09-08T04:16:59;10.25;;;5.57;;
20894;SDS011;10607;42.066;24.742;2023-09-08T04:19:25;11.80;;;5.07;;
20894;SDS011;10607;42.066;24.742;2023-09-08T04:21:50;14.98;;;5.13;;
20894;SDS011;10607;42.066;24.742;2023-09-08T04:24:16;9.95;;;4.43;;
20894;SDS011;10607;42.066;24.742;2023-09-08T04:26:41;14.82;;;5.30;;
20894;SDS011;10607;42.066;24.742;2023-09-08T04:29:06;17.65;;;6.00;;
20894;SDS011;10607;42.066;24.742;2023-09-08T04:31:31;12.77;;;5.40;;
20894;SDS011;10607;42.066;24.742;2023-09-08T04:33:57;21.83;;;5.55;;
20894;SDS011;10607;42.066;24.742;2023-09-08T04:36:22;11.90;;;6.55;;
20894;SDS011;10607;42.066;24.742;2023-09-08T04:38:48;16.58;;;5.43;;
20894;SDS011;10607;42.066;24.742;2023-09-08T04:41:13;13.38;;;5.57;;
20894;SDS011;10607;42.066;24.742;2023-09-08T04:43:38;9.18;;;6.25;;
20894;SDS011;10607;42.066;24.742;2023-09-08T04:46:04;14.48;;;6.22;;
20894;SDS011;10607;42.066;24.742;2023-09-08T04:48:29;9.88;;;5.90;;
20894;SDS011;10607;42.066;24.742;2023-09-08T04:50:56;10.25;;;5.07;;
20894;SDS011;10607;42.066;24.742;2023-09-08T04:53:21;17.70;;;5.97;;
20894;SDS011;10607;42.066;24.742;2023-09-08T04:55:47;12.60;;;5.32;;
20894;SDS011;10607;42.066;24.742;2023-09-08T04:58:12;11.95;;;5.38;;
20894;SDS011;10607;42.066;24.742;2023-09-08T05:00:37;12.70;;;4.43;;
20894;SDS011;10607;42.066;24.742;2023-09-08T05:03:03;8.40;;;4.75;;
20894;SDS011;10607;42.066;24.742;2023-09-08T05:05:29;15.55;;;5.22;;
20894;SDS011;10607;42.066;24.742;2023-09-08T05:07:54;19.67;;;5.28;;
20894;SDS011;10607;42.066;24.742;2023-09-08T05:10:21;22.73;;;5.88;;
20894;SDS011;10607;42.066;24.742;2023-09-08T05:12:46;16.13;;;4.78;;
20894;SDS011;10607;42.066;24.742;2023-09-08T05:15:12;12.68;;;5.20;;
20894;SDS011;10607;42.066;24.742;2023-09-08T05:17:40;13.13;;;5.50;;
20894;SDS011;10607;42.066;24.742;2023-09-08T05:20:06;22.38;;;5.95;;
20894;SDS011;10607;42.066;24.742;2023-09-08T05:22:31;15.90;;;5.20;;
20894;SDS011;10607;42.066;24.742;2023-09-08T05:24:56;22.23;;;5.13;;
20894;SDS011;10607;42.066;24.742;2023-09-08T05:27:22;19.33;;;5.78;;
20894;SDS011;10607;42.066;24.742;2023-09-08T05:29:47;14.18;;;5.55;;
20894;SDS011;10607;42.066;24.742;2023-09-08T05:32:12;13.85;;;5.47;;
20894;SDS011;10607;42.066;24.742;2023-09-08T05:34:38;26.10;;;5.45;;
20894;SDS011;10607;42.066;24.742;2023-09-08T05:37:03;23.20;;;5.55;;
20894;SDS011;10607;42.066;24.742;2023-09-08T05:39:28;10.10;;;4.70;;
20894;SDS011;10607;42.066;24.742;2023-09-08T05:41:53;12.98;;;4.68;;
20894;SDS011;10607;42.066;24.742;2023-09-08T05:44:19;17.30;;;5.05;;
20894;SDS011;10607;42.066;24.742;2023-09-08T05:46:45;20.20;;;5.68;;
20894;SDS011;10607;42.066;24.742;2023-09-08T05:49:10;13.25;;;5.88;;
20894;SDS011;10607;42.066;24.742;2023-09-08T05:51:35;13.23;;;5.40;;
20894;SDS011;10607;42.066;24.742;2023-09-08T05:54:01;9.77;;;4.55;;
20894;SDS011;10607;42.066;24.742;2023-09-08T05:56:29;11.07;;;5.25;;
20894;SDS011;10607;42.066;24.742;2023-09-08T05:58:54;13.95;;;4.88;;
20894;SDS011;10607;42.066;24.742;2023-09-08T06:01:20;14.02;;;5.43;;
20894;SDS011;10607;42.066;24.742;2023-09-08T06:03:45;12.48;;;4.70;;
20894;SDS011;10607;42.066;24.742;2023-09-08T06:06:10;16.30;;;5.00;;
20894;SDS011;10607;42.066;24.742;2023-09-08T06:08:35;13.43;;;5.00;;
20894;SDS011;10607;42.066;24.742;2023-09-08T06:11:01;13.70;;;4.90;;
20894;SDS011;10607;42.066;24.742;2023-09-08T06:13:26;16.85;;;4.93;;
20894;SDS011;10607;42.066;24.742;2023-09-08T06:15:51;14.07;;;4.80;;
20894;SDS011;10607;42.066;24.742;2023-09-08T06:18:17;9.93;;;4.28;;
20894;SDS011;10607;42.066;24.742;2023-09-08T06:20:45;15.50;;;5.00;;
20894;SDS011;10607;42.066;24.742;2023-09-08T06:23:11;11.52;;;4.28;;
20894;SDS011;10607;42.066;24.742;2023-09-08T06:25:36;10.18;;;4.82;;
20894;SDS011;10607;42.066;24.742;2023-09-08T06:28:01;13.35;;;4.55;;
20894;SDS011;10607;42.066;24.742;2023-09-08T06:30:26;7.57;;;5.00;;
20894;SDS011;10607;42.066;24.742;2023-09-08T06:32:52;12.57;;;4.53;;
20894;SDS011;10607;42.066;24.742;2023-09-08T06:35:17;8.82;;;4.93;;
20894;SDS011;10607;42.066;24.742;2023-09-08T06:37:42;13.95;;;4.60;;
20894;SDS011;10607;42.066;24.742;2023-09-08T06:40:08;9.38;;;5.18;;
20894;SDS011;10607;42.066;24.742;2023-09-08T06:42:33;7.40;;;5.00;;
20894;SDS011;10607;42.066;24.742;2023-09-08T06:44:59;9.95;;;5.40;;
20894;SDS011;10607;42.066;24.742;2023-09-08T06:47:24;10.00;;;5.10;;
20894;SDS011;10607;42.066;24.742;2023-09-08T06:49:49;11.18;;;5.10;;
20894;SDS011;10607;42.066;24.742;2023-09-08T06:52:15;14.40;;;5.10;;
20894;SDS011;10607;42.066;24.742;2023-09-08T06:54:40;11.68;;;5.28;;
20894;SDS011;10607;42.066;24.742;2023-09-08T06:57:05;10.25;;;5.50;;
20894;SDS011;10607;42.066;24.742;2023-09-08T06:59:30;13.95;;;5.30;;
20894;SDS011;10607;42.066;24.742;2023-09-08T07:01:56;14.30;;;5.68;;
20894;SDS011;10607;42.066;24.742;2023-09-08T07:04:21;12.65;;;5.13;;
20894;SDS011;10607;42.066;24.742;2023-09-08T07:06:46;10.57;;;5.30;;
20894;SDS011;10607;42.066;24.742;2023-09-08T07:09:12;17.35;;;5.05;;
20894;SDS011;10607;42.066;24.742;2023-09-08T07:11:37;13.57;;;4.93;;
20894;SDS011;10607;42.066;24.742;2023-09-08T07:14:03;11.30;;;4.55;;
20894;SDS011;10607;42.066;24.742;2023-09-08T07:16:28;9.68;;;3.75;;
20894;SDS011;10607;42.066;24.742;2023-09-08T07:18:53;7.35;;;3.30;;
20894;SDS011;10607;42.066;24.742;2023-09-08T07:21:18;9.38;;;3.65;;
20894;SDS011;10607;42.066;24.742;2023-09-08T07:23:44;8.10;;;3.83;;
20894;SDS011;10607;42.066;24.742;2023-09-08T07:26:09;4.50;;;3.45;;
20894;SDS011;10607;42.066;24.742;2023-09-08T07:28:34;5.65;;;3.53;;
20894;SDS011;10607;42.066;24.742;2023-09-08T07:31:03;10.27;;;3.17;;
20894;SDS011;10607;42.066;24.742;2023-09-08T07:33:28;8.43;;;3.78;;
20894;SDS011;10607;42.066;24.742;2023-09-08T07:35:54;9.70;;;4.00;;
20894;SDS011;10607;42.066;24.742;2023-09-08T07:38:19;6.68;;;3.65;;
20894;SDS011;10607;42.066;24.742;2023-09-08T07:40:44;14.57;;;4.85;;
20894;SDS011;10607;42.066;24.742;2023-09-08T07:43:09;9.65;;;3.83;;
20894;SDS011;10607;42.066;24.742;2023-09-08T07:45:35;6.28;;;3.72;;
20894;SDS011;10607;42.066;24.742;2023-09-08T07:48:00;9.27;;;3.75;;
20894;SDS011;10607;42.066;24.742;2023-09-08T07:50:26;11.05;;;4.07;;
20894;SDS011;10607;42.066;24.742;2023-09-08T07:52:53;5.45;;;3.42;;
20894;SDS011;10607;42.066;24.742;2023-09-08T07:55:18;11.52;;;3.80;;
20894;SDS011;10607;42.066;24.742;2023-09-08T07:57:44;6.00;;;3.17;;
20894;SDS011;10607;42.066;24.742;2023-09-08T08:00:11;14.85;;;3.95;;
20894;SDS011;10607;42.066;24.742;2023-09-08T08:02:37;6.88;;;3.67;;
20894;SDS011;10607;42.066;24.742;2023-09-08T08:05:03;8.10;;;3.30;;
20894;SDS011;10607;42.066;24.742;2023-09-08T08:07:28;7.32;;;3.70;;
20894;SDS011;10607;42.066;24.742;2023-09-08T08:09:55;7.20;;;4.00;;
20894;SDS011;10607;42.066;24.742;2023-09-08T08:12:20;12.05;;;3.63;;
20894;SDS011;10607;42.066;24.742;2023-09-08T08:14:45;8.40;;;3.83;;
20894;SDS011;10607;42.066;24.742;2023-09-08T08:17:10;10.50;;;4.05;;
20894;SDS011;10607;42.066;24.742;2023-09-08T08:19:36;6.28;;;3.45;;
20894;SDS011;10607;42.066;24.742;2023-09-08T08:22:02;6.90;;;3.53;;
20894;SDS011;10607;42.066;24.742;2023-09-08T08:24:27;9.20;;;3.67;;
20894;SDS011;10607;42.066;24.742;2023-09-08T08:26:52;8.23;;;3.80;;
20894;SDS011;10607;42.066;24.742;2023-09-08T08:29:17;8.18;;;3.75;;
20894;SDS011;10607;42.066;24.742;2023-09-08T08:31:43;11.35;;;3.60;;
20894;SDS011;10607;42.066;24.742;2023-09-08T08:34:08;9.77;;;3.45;;
20894;SDS011;10607;42.066;24.742;2023-09-08T08:36:34;7.50;;;3.58;;
20894;SDS011;10607;42.066;24.742;2023-09-08T08:38:59;9.43;;;3.65;;
20894;SDS011;10607;42.066;24.742;2023-09-08T08:41:25;3.90;;;2.85;;
20894;SDS011;10607;42.066;24.742;2023-09-08T08:43:50;10.38;;;3.55;;
20894;SDS011;10607;42.066;24.742;2023-09-08T08:46:16;6.78;;;3.50;;
20894;SDS011;10607;42.066;24.742;2023-09-08T08:48:42;8.73;;;3.53;;
20894;SDS011;10607;42.066;24.742;2023-09-08T08:51:08;7.18;;;2.80;;
20894;SDS011;10607;42.066;24.742;2023-09-08T08:53:35;10.73;;;3.45;;
20894;SDS011;10607;42.066;24.742;2023-09-08T08:56:02;8.93;;;3.15;;
20894;SDS011;10607;42.066;24.742;2023-09-08T08:58:28;7.60;;;3.55;;
20894;SDS011;10607;42.066;24.742;2023-09-08T09:00:54;9.80;;;3.47;;
20894;SDS011;10607;42.066;24.742;2023-09-08T09:03:22;13.23;;;3.40;;
20894;SDS011;10607;42.066;24.742;2023-09-08T09:05:48;9.02;;;3.53;;
20894;SDS011;10607;42.066;24.742;2023-09-08T09:08:13;7.88;;;3.42;;
20894;SDS011;10607;42.066;24.742;2023-09-08T09:10:39;13.95;;;3.97;;
20894;SDS011;10607;42.066;24.742;2023-09-08T09:13:04;9.32;;;3.40;;
20894;SDS011;10607;42.066;24.742;2023-09-08T09:15:30;8.05;;;3.40;;
20894;SDS011;10607;42.066;24.742;2023-09-08T09:18:06;9.98;;;4.07;;
20894;SDS011;10607;42.066;24.742;2023-09-08T09:20:33;8.75;;;3.50;;
20894;SDS011;10607;42.066;24.742;2023-09-08T09:22:58;9.10;;;3.30;;
20894;SDS011;10607;42.066;24.742;2023-09-08T09:25:24;9.15;;;3.40;;
20894;SDS011;10607;42.066;24.742;2023-09-08T09:27:51;9.20;;;3.47;;
20894;SDS011;10607;42.066;24.742;2023-09-08T09:30:16;7.32;;;3.75;;
20894;SDS011;10607;42.066;24.742;2023-09-08T09:32:42;12.15;;;3.45;;
20894;SDS011;10607;42.066;24.742;2023-09-08T09:35:08;6.35;;;3.70;;
20894;SDS011;10607;42.066;24.742;2023-09-08T09:37:33;8.85;;;3.65;;
20894;SDS011;10607;42.066;24.742;2023-09-08T09:40:00;8.88;;;3.70;;
20894;SDS011;10607;42.066;24.742;2023-09-08T09:42:27;13.65;;;3.75;;
20894;SDS011;10607;42.066;24.742;2023-09-08T09:44:53;9.05;;;3.45;;
20894;SDS011;10607;42.066;24.742;2023-09-08T09:47:18;6.43;;;3.20;;
20894;SDS011;10607;42.066;24.742;2023-09-08T09:49:44;11.15;;;3.40;;
20894;SDS011;10607;42.066;24.742;2023-09-08T09:52:13;8.30;;;3.10;;
20894;SDS011;10607;42.066;24.742;2023-09-08T09:54:40;5.47;;;2.90;;
20894;SDS011;10607;42.066;24.742;2023-09-08T09:57:06;13.15;;;3.50;;
20894;SDS011;10607;42.066;24.742;2023-09-08T09:59:31;7.75;;;3.25;;
20894;SDS011;10607;42.066;24.742;2023-09-08T10:01:58;6.72;;;2.80;;
20894;SDS011;10607;42.066;24.742;2023-09-08T10:04:24;6.57;;;2.75;;
20894;SDS011;10607;42.066;24.742;2023-09-08T10:06:50;11.80;;;3.20;;
20894;SDS011;10607;42.066;24.742;2023-09-08T10:09:16;4.90;;;2.42;;
20894;SDS011;10607;42.066;24.742;2023-09-08T10:14:09;5.30;;;2.60;;
20894;SDS011;10607;42.066;24.742;2023-09-08T10:16:36;8.90;;;2.70;;
20894;SDS011;10607;42.066;24.742;2023-09-08T10:19:04;6.15;;;2.92;;
20894;SDS011;10607;42.066;24.742;2023-09-08T10:21:32;10.05;;;2.80;;
20894;SDS011;10607;42.066;24.742;2023-09-08T10:24:03;8.63;;;3.28;;
20894;SDS011;10607;42.066;24.742;2023-09-08T10:26:30;5.55;;;2.92;;
20894;SDS011;10607;42.066;24.742;2023-09-08T10:28:56;8.05;;;2.85;;
20894;SDS011;10607;42.066;24.742;2023-09-08T10:31:26;4.75;;;2.97;;
20894;SDS011;10607;42.066;24.742;2023-09-08T10:33:53;4.75;;;2.70;;
20894;SDS011;10607;42.066;24.742;2023-09-08T10:36:18;6.78;;;3.13;;
20894;SDS011;10607;42.066;24.742;2023-09-08T10:38:44;6.28;;;2.83;;
20894;SDS011;10607;42.066;24.742;2023-09-08T10:43:44;7.90;;;2.95;;
20894;SDS011;10607;42.066;24.742;2023-09-08T10:46:09;6.53;;;2.60;;
20894;SDS011;10607;42.066;24.742;2023-09-08T10:48:44;6.45;;;2.75;;
20894;SDS011;10607;42.066;24.742;2023-09-08T10:51:13;7.93;;;2.60;;
20894;SDS011;10607;42.066;24.742;2023-09-08T10:53:39;8.15;;;2.72;;
20894;SDS011;10607;42.066;24.742;2023-09-08T10:56:04;6.03;;;2.58;;
20894;SDS011;10607;42.066;24.742;2023-09-08T10:58:30;8.43;;;2.83;;
20894;SDS011;10607;42.066;24.742;2023-09-08T11:00:58;10.68;;;3.17;;
20894;SDS011;10607;42.066;24.742;2023-09-08T11:06:03;7.78;;;2.80;;
20894;SDS011;10607;42.066;24.742;2023-09-08T11:08:29;8.00;;;3.05;;
20894;SDS011;10607;42.066;24.742;2023-09-08T11:10:55;10.38;;;2.75;;
20894;SDS011;10607;42.066;24.742;2023-09-08T11:13:20;5.47;;;2.58;;
20894;SDS011;10607;42.066;24.742;2023-09-08T11:15:45;7.50;;;2.50;;
20894;SDS011;10607;42.066;24.742;2023-09-08T11:18:10;7.93;;;2.63;;
20894;SDS011;10607;42.066;24.742;2023-09-08T11:20:36;8.52;;;2.30;;
20894;SDS011;10607;42.066;24.742;2023-09-08T11:23:01;6.18;;;2.50;;
20894;SDS011;10607;42.066;24.742;2023-09-08T11:25:26;7.07;;;2.78;;
20894;SDS011;10607;42.066;24.742;2023-09-08T11:27:52;8.82;;;3.05;;
20894;SDS011;10607;42.066;24.742;2023-09-08T11:30:17;6.43;;;2.58;;
20894;SDS011;10607;42.066;24.742;2023-09-08T11:32:42;5.10;;;2.35;;
20894;SDS011;10607;42.066;24.742;2023-09-08T11:35:08;4.65;;;2.60;;
20894;SDS011;10607;42.066;24.742;2023-09-08T11:37:36;6.07;;;2.60;;
20894;SDS011;10607;42.066;24.742;2023-09-08T11:40:01;8.07;;;2.67;;
20894;SDS011;10607;42.066;24.742;2023-09-08T11:42:29;5.82;;;2.78;;
20894;SDS011;10607;42.066;24.742;2023-09-08T11:44:54;13.27;;;3.40;;
20894;SDS011;10607;42.066;24.742;2023-09-08T11:47:22;3.65;;;2.70;;
20894;SDS011;10607;42.066;24.742;2023-09-08T11:49:47;10.32;;;2.90;;
20894;SDS011;10607;42.066;24.742;2023-09-08T11:52:12;11.70;;;2.60;;
20894;SDS011;10607;42.066;24.742;2023-09-08T11:54:38;8.30;;;2.25;;
20894;SDS011;10607;42.066;24.742;2023-09-08T11:57:04;12.35;;;3.00;;
20894;SDS011;10607;42.066;24.742;2023-09-08T11:59:32;6.65;;;2.85;;
20894;SDS011;10607;42.066;24.742;2023-09-08T12:01:58;6.88;;;2.83;;
20894;SDS011;10607;42.066;24.742;2023-09-08T12:04:23;7.53;;;2.80;;
20894;SDS011;10607;42.066;24.742;2023-09-08T12:06:49;7.20;;;2.92;;
20894;SDS011;10607;42.066;24.742;2023-09-08T12:09:15;4.65;;;2.70;;
20894;SDS011;10607;42.066;24.742;2023-09-08T12:11:41;9.05;;;2.80;;
20894;SDS011;10607;42.066;24.742;2023-09-08T12:14:09;6.03;;;2.80;;
20894;SDS011;10607;42.066;24.742;2023-09-08T12:16:35;5.25;;;2.55;;
20894;SDS011;10607;42.066;24.742;2023-09-08T12:19:00;4.97;;;2.58;;
20894;SDS011;10607;42.066;24.742;2023-09-08T12:21:26;9.23;;;2.60;;
20894;SDS011;10607;42.066;24.742;2023-09-08T12:23:52;11.55;;;3.08;;
20894;SDS011;10607;42.066;24.742;2023-09-08T12:26:17;7.60;;;2.90;;
20894;SDS011;10607;42.066;24.742;2023-09-08T12:28:43;6.65;;;2.67;;
20894;SDS011;10607;42.066;24.742;2023-09-08T12:31:09;7.85;;;2.70;;
20894;SDS011;10607;42.066;24.742;2023-09-08T12:33:34;6.53;;;3.17;;
20894;SDS011;10607;42.066;24.742;2023-09-08T12:36:00;5.60;;;3.28;;
20894;SDS011;10607;42.066;24.742;2023-09-08T12:38:30;5.50;;;3.10;;
20894;SDS011;10607;42.066;24.742;2023-09-08T12:40:55;8.55;;;2.70;;
20894;SDS011;10607;42.066;24.742;2023-09-08T12:43:20;5.75;;;2.90;;
20894;SDS011;10607;42.066;24.742;2023-09-08T12:45:46;4.43;;;2.80;;
20894;SDS011;10607;42.066;24.742;2023-09-08T12:48:11;6.78;;;2.70;;
20894;SDS011;10607;42.066;24.742;2023-09-08T12:50:36;6.03;;;2.67;;
20894;SDS011;10607;42.066;24.742;2023-09-08T12:53:02;5.65;;;2.47;;
20894;SDS011;10607;42.066;24.742;2023-09-08T12:55:27;6.65;;;3.10;;
20894;SDS011;10607;42.066;24.742;2023-09-08T12:57:52;9.75;;;3.08;;
20894;SDS011;10607;42.066;24.742;2023-09-08T13:00:20;4.10;;;2.78;;
20894;SDS011;10607;42.066;24.742;2023-09-08T13:02:45;9.82;;;2.70;;
20894;SDS011;10607;42.066;24.742;2023-09-08T13:05:10;5.10;;;2.45;;
20894;SDS011;10607;42.066;24.742;2023-09-08T13:07:36;8.63;;;2.60;;
20894;SDS011;10607;42.066;24.742;2023-09-08T13:10:01;5.78;;;2.60;;
20894;SDS011;10607;42.066;24.742;2023-09-08T13:12:26;13.35;;;2.50;;
20894;SDS011;10607;42.066;24.742;2023-09-08T13:14:52;15.73;;;2.95;;
20894;SDS011;10607;42.066;24.742;2023-09-08T13:17:17;9.00;;;2.83;;
20894;SDS011;10607;42.066;24.742;2023-09-08T13:19:43;8.40;;;2.83;;
20894;SDS011;10607;42.066;24.742;2023-09-08T13:22:09;4.80;;;2.70;;
20894;SDS011;10607;42.066;24.742;2023-09-08T13:24:35;6.90;;;2.72;;
20894;SDS011;10607;42.066;24.742;2023-09-08T13:27:00;14.00;;;2.75;;
20894;SDS011;10607;42.066;24.742;2023-09-08T13:29:26;6.30;;;2.80;;
20894;SDS011;10607;42.066;24.742;2023-09-08T13:31:52;8.73;;;2.97;;
20894;SDS011;10607;42.066;24.742;2023-09-08T13:34:17;4.55;;;2.88;;
20894;SDS011;10607;42.066;24.742;2023-09-08T13:36:43;7.15;;;3.13;;
20894;SDS011;10607;42.066;24.742;2023-09-08T13:39:08;3.60;;;2.80;;
20894;SDS011;10607;42.066;24.742;2023-09-08T13:44:17;5.30;;;2.60;;
20894;SDS011;10607;42.066;24.742;2023-09-08T13:46:43;6.57;;;3.10;;
20894;SDS011;10607;42.066;24.742;2023-09-08T13:49:09;8.00;;;2.55;;
20894;SDS011;10607;42.066;24.742;2023-09-08T13:51:34;9.75;;;3.67;;
20894;SDS011;10607;42.066;24.742;2023-09-08T13:53:59;7.95;;;3.10;;
20894;SDS011;10607;42.066;24.742;2023-09-08T13:56:25;12.20;;;2.95;;
20894;SDS011;10607;42.066;24.742;2023-09-08T13:58:51;12.35;;;3.28;;
20894;SDS011;10607;42.066;24.742;2023-09-08T14:01:16;15.45;;;2.92;;
20894;SDS011;10607;42.066;24.742;2023-09-08T14:03:41;16.42;;;3.53;;
20894;SDS011;10607;42.066;24.742;2023-09-08T14:06:07;9.57;;;3.28;;
20894;SDS011;10607;42.066;24.742;2023-09-08T14:08:32;9.55;;;3.25;;
20894;SDS011;10607;42.066;24.742;2023-09-08T14:10:57;9.88;;;2.83;;
20894;SDS011;10607;42.066;24.742;2023-09-08T14:13:23;10.23;;;3.20;;
20894;SDS011;10607;42.066;24.742;2023-09-08T14:15:48;6.82;;;3.08;;
20894;SDS011;10607;42.066;24.742;2023-09-08T14:18:13;17.52;;;3.40;;
20894;SDS011;10607;42.066;24.742;2023-09-08T14:20:42;10.55;;;3.20;;
20894;SDS011;10607;42.066;24.742;2023-09-08T14:23:07;5.35;;;2.70;;
20894;SDS011;10607;42.066;24.742;2023-09-08T14:25:33;16.58;;;3.20;;
20894;SDS011;10607;42.066;24.742;2023-09-08T14:27:59;16.30;;;3.55;;
20894;SDS011;10607;42.066;24.742;2023-09-08T14:30:24;8.93;;;3.55;;
20894;SDS011;10607;42.066;24.742;2023-09-08T14:32:49;9.18;;;3.72;;
20894;SDS011;10607;42.066;24.742;2023-09-08T14:35:15;9.73;;;3.20;;